Puerto Barrios Airport
MGPB : rendu visible

Aérodrome :











RETROUVEZ-NOUS SUR...

 
LOGIN :

S'inscrire | Disclaimer

   EN    FR    IT 

 









Légende :    VFR   VFR Marginal   IFR   IFR Intensif   IFR Très Intensif
Visi : 
Plafond : 
>= 8 km
>= 3000ft
5 à 8 km
1000 à 3000 ft
1500m à 5 km
500 à 1000 ft
800 à 1500m
200 à 500 ft
< 800m
< 200 ft
Symboles :   Orages  Brouillard  Fortes neiges  Fortes précipitations  Vent > 20 kt






- Altitude de l'aérodrome : 33 ft
- Code IATA : PBR


MGPB - Puerto Barrios

METARs EXPIRÉS :
  • 150000Z 00000KT CAVOK 26/23 Q1012 A2988 SCT200
  • 142300Z 00000KT CAVOK 27/ Q1011 A2985 TCU DIST N

TAF MGPB
Valide du 15 à 00h jusqu'au 16 à 00h UTC


142300Z 1500/1524 00000KT 9999 FEW018 TX32/1520Z TN21/1512Z
BECMG 1506/1508 SCT016
BECMG 1515/1517 36008KT SCT018
TEMPO 1518/1524 RADZ BKN018



MET'MAP, la Météo Aéronautique d'un coup d'oeil ! - Copyright ORBIFLY Décembre 2007 - Disclaimer

ORBIFLY MET'MAP TEAM :

Programmation & Développement : Alexandra Zaïnal
Sur une idée originale de : Baudouin d'Aumeries
Assistance à la programmation : Marc-Olivier Méhu
Soutien technique & logistique : Manuel Goepfert

Contact : metmap@orbifly.com




SOURCES & CREDITS :

   NOAA       Earth
Advisory